Time;durP1;ratioP1;P1;durP2;ratioP2;P2;SDS_P1;SDS_P2;PMS_P1;PMS_P2;Temp;Humidity;BMP_temperature;BMP_pressure;BME280_temperature;BME280_humidity;BME280_pressure;Samples;Min_cycle;Max_cycle;Signal;HPM_P1;HPM_P2
2022/09/02 00:01:30;;;;;;;2.90;1.25;;;;;;;;;;4450186;32;20029;-73
2022/09/02 00:03:59;;;;;;;3.12;1.37;;;;;;;;;;4450033;32;20026;-73
2022/09/02 00:06:25;;;;;;;1.67;1.35;;;;;;;;;;4449561;32;20072;-73
2022/09/02 00:08:53;;;;;;;1.50;1.40;;;;;;;;;;4450489;32;20029;-74
2022/09/02 00:11:21;;;;;;;2.35;1.42;;;;;;;;;;4449698;32;20026;-74
2022/09/02 00:13:46;;;;;;;1.20;1.10;;;;;;;;;;4451869;32;20084;-74
2022/09/02 00:16:12;;;;;;;3.05;1.60;;;;;;;;;;4465584;32;20051;-73
2022/09/02 00:18:38;;;;;;;4.55;1.30;;;;;;;;;;4464913;32;20092;-74
2022/09/02 00:21:03;;;;;;;1.87;1.10;;;;;;;;;;4465360;32;20033;-74
2022/09/02 00:23:32;;;;;;;2.53;1.08;;;;;;;;;;4465704;32;20047;-71
2022/09/02 00:25:57;;;;;;;1.10;1.00;;;;;;;;;;4464997;32;20405;-72
2022/09/02 00:28:23;;;;;;;3.97;1.40;;;;;;;;;;4465369;32;20029;-72
2022/09/02 00:30:48;;;;;;;3.10;1.50;;;;;;;;;;4465418;32;20029;-72
2022/09/02 00:33:14;;;;;;;1.35;1.20;;;;;;;;;;4464674;32;20064;-71
2022/09/02 00:35:39;;;;;;;2.35;1.20;;;;;;;;;;4466000;32;20055;-72
2022/09/02 00:38:05;;;;;;;1.55;1.15;;;;;;;;;;4463455;32;20037;-72
2022/09/02 00:40:31;;;;;;;2.72;1.20;;;;;;;;;;4464777;32;20453;-72
2022/09/02 00:42:56;;;;;;;3.85;1.17;;;;;;;;;;4465094;32;20443;-72
2022/09/02 00:45:21;;;;;;;1.73;1.12;;;;;;;;;;4465244;32;20496;-71
2022/09/02 00:47:50;;;;;;;3.75;1.52;;;;;;;;;;4464302;32;20488;-72
2022/09/02 00:50:16;;;;;;;3.00;1.10;;;;;;;;;;4465059;32;20052;-72
2022/09/02 00:52:44;;;;;;;1.70;1.35;;;;;;;;;;4464500;32;20044;-72
2022/09/02 00:55:11;;;;;;;1.27;1.10;;;;;;;;;;4464965;32;20029;-72
2022/09/02 00:57:43;;;;;;;1.20;1.08;;;;;;;;;;4455467;32;20033;-72
2022/09/02 01:00:16;;;;;;;1.30;1.20;;;;;;;;;;4450713;32;20025;-72
2022/09/02 01:02:41;;;;;;;2.50;1.20;;;;;;;;;;4452442;32;20109;-72
2022/09/02 01:05:08;;;;;;;2.33;1.30;;;;;;;;;;4452617;32;20038;-72
2022/09/02 01:07:36;;;;;;;3.12;1.23;;;;;;;;;;4452170;32;20029;-72
2022/09/02 01:10:03;;;;;;;1.52;1.05;;;;;;;;;;4456558;32;20060;-72
2022/09/02 01:12:28;;;;;;;1.52;1.10;;;;;;;;;;4463511;32;20033;-72
2022/09/02 01:14:53;;;;;;;2.05;1.20;;;;;;;;;;4451927;32;20088;-72
2022/09/02 01:17:19;;;;;;;2.12;1.20;;;;;;;;;;4452366;32;20021;-72
2022/09/02 01:19:46;;;;;;;1.98;1.23;;;;;;;;;;4452318;32;20381;-72
2022/09/02 01:22:17;;;;;;;2.83;1.10;;;;;;;;;;4452016;32;20034;-72
2022/09/02 01:24:45;;;;;;;1.62;1.00;;;;;;;;;;4452443;32;20044;-72
2022/09/02 01:27:13;;;;;;;3.47;1.10;;;;;;;;;;4451796;32;20056;-72
2022/09/02 01:29:39;;;;;;;1.52;1.30;;;;;;;;;;4454872;32;20404;-72
2022/09/02 01:32:04;;;;;;;1.30;1.20;;;;;;;;;;4467584;32;20055;-72
2022/09/02 01:34:29;;;;;;;2.30;1.12;;;;;;;;;;4467637;32;20455;-72
2022/09/02 01:36:54;;;;;;;4.47;1.63;;;;;;;;;;4467441;32;20021;-71
2022/09/02 01:39:22;;;;;;;2.87;1.10;;;;;;;;;;4467503;32;20188;-72
2022/09/02 01:41:47;;;;;;;1.67;1.20;;;;;;;;;;4452074;32;20158;-71
2022/09/02 01:44:15;;;;;;;2.10;1.35;;;;;;;;;;4451628;32;20069;-72
2022/09/02 01:46:40;;;;;;;5.32;1.48;;;;;;;;;;4451937;32;20104;-72
2022/09/02 01:49:05;;;;;;;0.95;0.90;;;;;;;;;;4452054;32;20048;-72
2022/09/02 01:51:30;;;;;;;1.20;1.10;;;;;;;;;;4451481;32;20021;-72
2022/09/02 01:53:56;;;;;;;2.12;1.10;;;;;;;;;;4452490;32;20045;-72
2022/09/02 01:56:21;;;;;;;3.03;1.60;;;;;;;;;;4452316;32;20029;-72
2022/09/02 01:58:46;;;;;;;3.97;1.17;;;;;;;;;;4451326;32;20092;-72
2022/09/02 02:01:11;;;;;;;3.55;1.30;;;;;;;;;;4452139;32;20046;-71
2022/09/02 02:03:37;;;;;;;1.23;1.10;;;;;;;;;;4451831;32;20404;-72
2022/09/02 02:06:07;;;;;;;1.52;1.33;;;;;;;;;;4451320;32;20084;-71
2022/09/02 02:08:32;;;;;;;1.70;1.00;;;;;;;;;;4451462;32;20055;-71
2022/09/02 02:10:57;;;;;;;1.55;1.10;;;;;;;;;;4451270;32;20029;-71
2022/09/02 02:13:22;;;;;;;1.83;1.00;;;;;;;;;;4450665;32;20037;-72
2022/09/02 02:15:47;;;;;;;4.60;1.33;;;;;;;;;;4451116;32;20185;-71
2022/09/02 02:18:13;;;;;;;1.87;1.30;;;;;;;;;;4450958;32;20299;-72
2022/09/02 02:20:38;;;;;;;4.82;1.15;;;;;;;;;;4451485;32;20427;-72
2022/09/02 02:23:04;;;;;;;2.28;1.35;;;;;;;;;;4451276;32;20099;-72
2022/09/02 02:25:29;;;;;;;1.45;1.20;;;;;;;;;;4450780;32;20420;-72
2022/09/02 02:27:54;;;;;;;1.02;0.93;;;;;;;;;;4451088;32;20051;-72
2022/09/02 02:30:20;;;;;;;1.53;1.20;;;;;;;;;;4460361;32;20033;-73
2022/09/02 02:32:46;;;;;;;2.90;1.10;;;;;;;;;;4465997;32;20158;-72
2022/09/02 02:35:11;;;;;;;1.73;1.00;;;;;;;;;;4466687;32;20062;-72
2022/09/02 02:37:37;;;;;;;3.05;1.30;;;;;;;;;;4466778;32;20037;-71
2022/09/02 02:40:03;;;;;;;1.30;1.20;;;;;;;;;;4466526;32;20063;-71
2022/09/02 02:42:28;;;;;;;1.35;1.23;;;;;;;;;;4466395;32;20440;-71
2022/09/02 02:44:54;;;;;;;1.67;1.10;;;;;;;;;;4467198;32;20081;-72
2022/09/02 02:47:28;;;;;;;1.95;1.20;;;;;;;;;;4459026;32;20120;-72
2022/09/02 02:49:53;;;;;;;3.03;1.00;;;;;;;;;;4451076;32;20018;-72
2022/09/02 02:52:19;;;;;;;2.25;1.20;;;;;;;;;;4451420;32;20076;-72
2022/09/02 02:54:44;;;;;;;1.52;1.00;;;;;;;;;;4450090;32;20073;-71
2022/09/02 02:57:10;;;;;;;2.45;1.05;;;;;;;;;;4450517;32;20100;-72
2022/09/02 02:59:35;;;;;;;3.10;1.20;;;;;;;;;;4451150;32;20021;-73
2022/09/02 03:02:01;;;;;;;1.75;1.25;;;;;;;;;;4450316;32;20096;-72
2022/09/02 03:04:29;;;;;;;1.92;1.23;;;;;;;;;;4450576;32;20436;-72
2022/09/02 03:06:54;;;;;;;2.78;1.10;;;;;;;;;;4450710;32;20057;-74
2022/09/02 03:09:19;;;;;;;3.10;1.15;;;;;;;;;;4450240;32;20303;-72
2022/09/02 03:11:45;;;;;;;1.62;1.25;;;;;;;;;;4450863;32;20133;-72
2022/09/02 03:14:10;;;;;;;2.97;1.40;;;;;;;;;;4449737;32;20065;-72
2022/09/02 03:16:35;;;;;;;3.50;1.20;;;;;;;;;;4464951;32;20093;-72
2022/09/02 03:19:01;;;;;;;1.60;1.10;;;;;;;;;;4466569;32;20116;-72
2022/09/02 03:21:26;;;;;;;1.45;1.05;;;;;;;;;;4465874;32;20060;-72
2022/09/02 03:23:51;;;;;;;1.90;1.40;;;;;;;;;;4465170;32;20063;-72
2022/09/02 03:26:18;;;;;;;1.67;1.00;;;;;;;;;;4466657;32;20056;-72
2022/09/02 03:28:50;;;;;;;1.30;1.08;;;;;;;;;;4465549;32;20108;-72
2022/09/02 03:31:20;;;;;;;2.12;1.00;;;;;;;;;;4466056;32;20450;-72
2022/09/02 03:33:46;;;;;;;2.25;1.10;;;;;;;;;;4465953;32;20036;-72
2022/09/02 03:36:18;;;;;;;1.17;1.08;;;;;;;;;;4465158;32;20115;-72
2022/09/02 03:38:44;;;;;;;1.62;1.35;;;;;;;;;;4463666;32;20247;-72
2022/09/02 03:41:09;;;;;;;2.05;1.33;;;;;;;;;;4450501;32;20021;-72
2022/09/02 03:43:34;;;;;;;9.30;1.40;;;;;;;;;;4449935;32;20136;-72
2022/09/02 03:45:59;;;;;;;2.27;1.30;;;;;;;;;;4450144;32;20192;-72
2022/09/02 03:48:24;;;;;;;1.33;1.20;;;;;;;;;;4450378;32;20187;-72
2022/09/02 03:50:49;;;;;;;2.83;1.10;;;;;;;;;;4449180;32;20029;-72
2022/09/02 03:53:15;;;;;;;1.40;1.30;;;;;;;;;;4450186;32;20874;-73
2022/09/02 03:55:40;;;;;;;4.03;1.00;;;;;;;;;;4450162;32;20154;-72
2022/09/02 03:58:08;;;;;;;1.10;1.00;;;;;;;;;;4449479;32;20401;-73
2022/09/02 04:00:33;;;;;;;2.53;1.40;;;;;;;;;;4463558;32;20112;-73
2022/09/02 04:03:00;;;;;;;2.55;1.12;;;;;;;;;;4465718;32;20021;-72
2022/09/02 04:05:25;;;;;;;1.27;1.00;;;;;;;;;;4464626;32;20351;-72
2022/09/02 04:07:51;;;;;;;4.07;1.20;;;;;;;;;;4465720;32;20037;-72
2022/09/02 04:10:16;;;;;;;2.12;1.17;;;;;;;;;;4463589;32;20137;-73
2022/09/02 04:12:42;;;;;;;3.78;1.37;;;;;;;;;;4459340;32;20041;-72
2022/09/02 04:15:08;;;;;;;7.13;1.30;;;;;;;;;;4450045;32;20172;-72
2022/09/02 04:17:38;;;;;;;1.98;1.20;;;;;;;;;;4449657;32;20113;-73
2022/09/02 04:20:04;;;;;;;2.08;1.40;;;;;;;;;;4449361;32;20033;-73
2022/09/02 04:22:30;;;;;;;1.70;0.95;;;;;;;;;;4449916;32;20112;-73
2022/09/02 04:24:55;;;;;;;1.25;1.10;;;;;;;;;;4449266;32;20094;-73
2022/09/02 04:27:20;;;;;;;4.45;1.48;;;;;;;;;;4449586;32;20033;-73
2022/09/02 04:29:48;;;;;;;2.53;1.48;;;;;;;;;;4450187;32;20357;-74
2022/09/02 04:32:13;;;;;;;1.65;1.10;;;;;;;;;;4449313;32;20063;-72
2022/09/02 04:34:42;;;;;;;1.45;1.00;;;;;;;;;;4450157;32;20030;-72
2022/09/02 04:37:07;;;;;;;2.25;1.17;;;;;;;;;;4453178;32;20151;-73
2022/09/02 04:39:32;;;;;;;3.70;1.80;;;;;;;;;;4452419;32;20389;-72
2022/09/02 04:41:58;;;;;;;2.37;1.15;;;;;;;;;;4453274;32;20021;-72
2022/09/02 04:44:24;;;;;;;1.65;1.35;;;;;;;;;;4452872;32;20048;-72
2022/09/02 04:46:49;;;;;;;3.33;1.77;;;;;;;;;;4452232;32;20060;-72
2022/09/02 04:49:14;;;;;;;4.47;1.00;;;;;;;;;;4452414;32;20381;-72
2022/09/02 04:51:40;;;;;;;2.93;1.20;;;;;;;;;;4452687;32;20103;-72
2022/09/02 04:54:05;;;;;;;2.92;1.30;;;;;;;;;;4452151;32;20124;-72
2022/09/02 04:56:33;;;;;;;1.30;1.20;;;;;;;;;;4452752;32;20116;-72
2022/09/02 04:58:58;;;;;;;3.62;1.33;;;;;;;;;;4452455;32;20135;-73
2022/09/02 05:01:25;;;;;;;1.65;1.30;;;;;;;;;;4451770;32;20076;-72
2022/09/02 05:03:52;;;;;;;5.22;1.42;;;;;;;;;;4452829;32;20041;-75
2022/09/02 05:06:19;;;;;;;4.62;1.33;;;;;;;;;;4456208;32;20032;-72
2022/09/02 05:08:46;;;;;;;2.97;1.20;;;;;;;;;;4467577;32;20109;-72
2022/09/02 05:11:13;;;;;;;8.82;1.45;;;;;;;;;;4467957;32;20033;-72
2022/09/02 05:13:39;;;;;;;4.15;1.42;;;;;;;;;;4455084;32;20384;-70
2022/09/02 05:16:04;;;;;;;1.75;1.20;;;;;;;;;;4452121;32;20037;-71
2022/09/02 05:18:30;;;;;;;2.85;1.42;;;;;;;;;;4452245;32;20435;-70
2022/09/02 05:20:55;;;;;;;1.52;1.17;;;;;;;;;;4452675;32;20667;-71
2022/09/02 05:23:20;;;;;;;2.78;1.45;;;;;;;;;;4468009;32;20033;-68
2022/09/02 05:25:45;;;;;;;1.40;1.30;;;;;;;;;;4465811;32;20055;-65
2022/09/02 05:28:11;;;;;;;3.37;1.37;;;;;;;;;;4461870;32;20061;-67
2022/09/02 05:30:37;;;;;;;5.93;2.00;;;;;;;;;;4451444;32;20033;-68
2022/09/02 13:56:45;;;;;;;7.97;2.78;;;;;;;;;;4462181;32;20147;-67
2022/09/02 13:59:30;;;;;;;9.05;2.83;;;;;;;;;;4454101;32;20029;-68
2022/09/02 14:01:58;;;;;;;10.35;2.55;;;;;;;;;;4446740;32;20052;-67
2022/09/02 14:04:26;;;;;;;5.68;2.35;;;;;;;;;;4448794;32;20067;-64
2022/09/02 14:06:52;;;;;;;5.12;2.30;;;;;;;;;;4463341;32;20051;-64
2022/09/02 14:09:37;;;;;;;5.40;2.37;;;;;;;;;;4462332;32;20108;-63
2022/09/02 14:12:04;;;;;;;3.33;2.25;;;;;;;;;;4443983;32;20110;-63
2022/09/02 14:14:30;;;;;;;3.53;2.30;;;;;;;;;;4452793;32;20057;-64
2022/09/02 14:17:17;;;;;;;3.33;2.45;;;;;;;;;;4447192;32;20072;-70
2022/09/02 14:19:42;;;;;;;6.25;2.55;;;;;;;;;;4444808;32;20052;-72
2022/09/02 14:22:18;;;;;;;2.58;2.20;;;;;;;;;;4455522;32;20037;-73
2022/09/02 14:24:43;;;;;;;2.90;1.92;;;;;;;;;;4463870;32;20029;-73
2022/09/02 14:27:15;;;;;;;4.05;2.37;;;;;;;;;;4463576;32;20065;-72
2022/09/02 14:29:43;;;;;;;6.82;2.08;;;;;;;;;;4455835;32;20021;-72
2022/09/02 14:32:22;;;;;;;8.48;2.70;;;;;;;;;;4447397;32;20029;-66
2022/09/02 14:34:48;;;;;;;15.60;2.45;;;;;;;;;;4447215;32;20158;-65
2022/09/02 14:37:24;;;;;;;7.40;2.58;;;;;;;;;;4446699;32;20364;-64
2022/09/02 14:39:53;;;;;;;4.68;2.67;;;;;;;;;;4450947;32;20061;-64
2022/09/02 14:42:18;;;;;;;8.32;2.30;;;;;;;;;;4447443;32;20037;-66
2022/09/02 14:44:49;;;;;;;6.47;2.50;;;;;;;;;;4447066;32;20086;-64
2022/09/02 14:47:16;;;;;;;2.90;2.40;;;;;;;;;;4447476;32;20097;-64
2022/09/02 14:49:46;;;;;;;5.35;2.20;;;;;;;;;;4453596;32;20407;-64
2022/09/02 14:52:18;;;;;;;9.13;2.70;;;;;;;;;;4462717;32;20097;-64
2022/09/02 14:54:46;;;;;;;9.75;2.40;;;;;;;;;;4462533;32;20071;-64
2022/09/02 14:57:30;;;;;;;4.78;2.25;;;;;;;;;;4462623;32;20051;-64
2022/09/02 14:59:57;;;;;;;2.95;2.35;;;;;;;;;;4454734;32;20062;-64
2022/09/02 15:02:32;;;;;;;5.43;2.85;;;;;;;;;;4454943;32;20089;-64
2022/09/02 15:04:58;;;;;;;8.23;2.42;;;;;;;;;;4462049;32;20067;-65
2022/09/02 15:07:24;;;;;;;5.45;2.50;;;;;;;;;;4455499;32;20081;-64
2022/09/02 15:09:50;;;;;;;3.80;2.50;;;;;;;;;;4447073;32;20045;-63
2022/09/02 15:12:17;;;;;;;6.87;2.55;;;;;;;;;;4438228;32;20451;-62
2022/09/02 15:14:43;;;;;;;3.70;2.30;;;;;;;;;;4428180;32;20041;-61
2022/09/02 15:17:09;;;;;;;7.87;2.43;;;;;;;;;;4443046;32;20025;-61
2022/09/02 15:19:34;;;;;;;4.20;2.50;;;;;;;;;;4452416;32;20147;-61
2022/09/02 15:21:59;;;;;;;10.35;6.37;;;;;;;;;;4452461;32;20040;-66
2022/09/02 15:24:24;;;;;;;99.15;69.90;;;;;;;;;;4441614;32;20065;-67
2022/09/02 15:26:50;;;;;;;118.30;81.00;;;;;;;;;;4437971;32;20132;-70
2022/09/02 15:29:17;;;;;;;76.43;49.85;;;;;;;;;;4445837;32;20139;-66
2022/09/02 15:31:42;;;;;;;80.85;56.13;;;;;;;;;;4436760;32;20055;-72
2022/09/02 15:34:07;;;;;;;55.33;35.10;;;;;;;;;;4435712;32;20037;-73
2022/09/02 15:36:33;;;;;;;38.00;25.00;;;;;;;;;;4436637;32;20108;-72
2022/09/02 15:38:59;;;;;;;37.88;25.17;;;;;;;;;;4449837;32;20133;-72
2022/09/02 15:41:26;;;;;;;26.70;17.67;;;;;;;;;;4451341;32;20079;-77
2022/09/02 15:43:52;;;;;;;23.17;16.67;;;;;;;;;;4434924;32;20037;-67
2022/09/02 15:46:24;;;;;;;22.75;13.77;;;;;;;;;;4434757;32;20101;-70
2022/09/02 15:48:50;;;;;;;17.80;11.80;;;;;;;;;;4435528;32;20091;-69
2022/09/02 15:51:17;;;;;;;14.50;10.50;;;;;;;;;;4442299;32;20038;-73
2022/09/02 15:53:42;;;;;;;19.65;12.27;;;;;;;;;;4450948;32;20302;-74
2022/09/02 15:56:14;;;;;;;17.17;8.73;;;;;;;;;;4451576;32;20105;-81
2022/09/02 15:58:40;;;;;;;12.65;8.43;;;;;;;;;;4451232;32;20427;-71
2022/09/02 16:01:05;;;;;;;8.88;6.25;;;;;;;;;;4447133;32;20038;-83
2022/09/02 16:03:30;;;;;;;9.43;6.57;;;;;;;;;;4451756;32;20045;-72
2022/09/02 16:06:00;;;;;;;8.80;6.43;;;;;;;;;;4451060;32;20033;-67
2022/09/02 16:08:25;;;;;;;10.95;5.12;;;;;;;;;;4449587;32;20128;-76
2022/09/02 16:10:50;;;;;;;6.60;4.13;;;;;;;;;;4450733;32;20059;-77
2022/09/02 16:13:16;;;;;;;5.62;4.10;;;;;;;;;;4435033;32;20462;-76
2022/09/02 16:15:41;;;;;;;7.65;3.75;;;;;;;;;;4436794;32;20045;-78
2022/09/02 16:18:06;;;;;;;10.20;3.40;;;;;;;;;;4435139;32;20029;-79
2022/09/02 16:20:34;;;;;;;5.87;3.20;;;;;;;;;;4435010;32;20057;-82
2022/09/02 16:22:59;;;;;;;7.00;3.58;;;;;;;;;;4436122;32;20623;-81
2022/09/02 16:25:25;;;;;;;7.60;2.78;;;;;;;;;;4436099;32;20025;-78
2022/09/02 16:27:54;;;;;;;5.73;2.70;;;;;;;;;;4435501;32;20500;-77
2022/09/02 16:30:20;;;;;;;7.62;2.55;;;;;;;;;;4434774;32;20529;-76
2022/09/02 16:32:46;;;;;;;7.55;2.60;;;;;;;;;;4437562;32;20056;-75
2022/09/02 16:35:11;;;;;;;4.97;2.50;;;;;;;;;;4440785;32;20426;-76
2022/09/02 16:37:36;;;;;;;8.17;2.40;;;;;;;;;;4450743;32;20025;-77
2022/09/02 16:40:03;;;;;;;5.32;2.25;;;;;;;;;;4441414;32;20133;-76
2022/09/02 16:42:28;;;;;;;4.65;2.08;;;;;;;;;;4448034;32;20192;-76
2022/09/02 16:44:54;;;;;;;6.75;2.50;;;;;;;;;;4450526;32;20037;-77
2022/09/02 16:47:19;;;;;;;6.50;2.37;;;;;;;;;;4437611;32;20499;-74
2022/09/02 16:49:45;;;;;;;4.43;2.65;;;;;;;;;;4433082;32;20470;-66
2022/09/02 16:52:10;;;;;;;7.20;2.58;;;;;;;;;;4434350;32;20045;-68
2022/09/02 16:54:36;;;;;;;5.15;2.62;;;;;;;;;;4433848;32;20429;-68
2022/09/02 16:57:01;;;;;;;6.28;2.87;;;;;;;;;;4443034;32;20029;-68
2022/09/02 16:59:26;;;;;;;5.75;2.80;;;;;;;;;;4436669;32;20481;-68
2022/09/02 17:01:54;;;;;;;6.30;2.70;;;;;;;;;;4435281;32;20038;-68
2022/09/02 17:04:19;;;;;;;16.62;3.10;;;;;;;;;;4434499;32;20115;-68
2022/09/02 17:06:45;;;;;;;3.85;2.62;;;;;;;;;;4434769;32;20402;-75
2022/09/02 17:09:10;;;;;;;8.18;2.95;;;;;;;;;;4434515;32;20125;-73
2022/09/02 17:11:38;;;;;;;8.48;2.65;;;;;;;;;;4434779;32;20063;-76
2022/09/02 17:14:10;;;;;;;3.72;2.60;;;;;;;;;;4435402;32;20200;-81
2022/09/02 17:16:37;;;;;;;6.62;2.90;;;;;;;;;;4435579;32;20045;-74
2022/09/02 17:19:03;;;;;;;13.20;3.22;;;;;;;;;;4434248;32;20087;-74
2022/09/02 17:21:29;;;;;;;6.65;2.60;;;;;;;;;;4443567;32;20111;-74
2022/09/02 17:23:54;;;;;;;10.15;2.50;;;;;;;;;;4450710;32;20029;-75
2022/09/02 17:26:22;;;;;;;5.47;2.40;;;;;;;;;;4449813;32;20436;-74
2022/09/02 17:28:47;;;;;;;5.05;2.70;;;;;;;;;;4449927;32;20079;-74
2022/09/02 17:31:16;;;;;;;5.05;2.80;;;;;;;;;;4450264;32;20034;-76
2022/09/02 17:33:41;;;;;;;4.97;2.62;;;;;;;;;;4450047;32;20469;-74
2022/09/02 17:36:07;;;;;;;6.20;3.25;;;;;;;;;;4448693;32;20029;-74
2022/09/02 17:38:33;;;;;;;6.03;2.60;;;;;;;;;;4450044;32;20401;-74
2022/09/02 17:43:45;;;;;;;4.20;2.53;;;;;;;;;;4450628;32;20134;-74
2022/09/02 17:46:10;;;;;;;6.20;3.10;;;;;;;;;;4450083;32;20045;-73
2022/09/02 17:48:35;;;;;;;5.10;2.87;;;;;;;;;;4449709;32;20516;-76
2022/09/02 17:51:00;;;;;;;7.03;2.50;;;;;;;;;;4449916;32;20066;-76
2022/09/02 17:53:26;;;;;;;9.25;3.60;;;;;;;;;;4449639;32;20151;-76
2022/09/02 17:56:03;;;;;;;6.90;3.20;;;;;;;;;;4436917;32;20046;-76
2022/09/02 17:58:36;;;;;;;5.65;2.72;;;;;;;;;;4434867;32;20079;-76
2022/09/02 18:01:07;;;;;;;4.53;2.65;;;;;;;;;;4433520;32;20072;-76
2022/09/02 18:03:53;;;;;;;8.27;2.58;;;;;;;;;;4442398;32;20024;-80
2022/09/02 18:06:26;;;;;;;6.72;2.83;;;;;;;;;;4426298;32;20089;-76
2022/09/02 18:09:01;;;;;;;5.53;2.67;;;;;;;;;;4434359;32;20383;-77
2022/09/02 18:11:26;;;;;;;5.85;2.75;;;;;;;;;;4419018;32;20064;-76
2022/09/02 18:13:54;;;;;;;6.80;2.65;;;;;;;;;;4418862;32;20469;-72
2022/09/02 18:16:27;;;;;;;4.37;2.60;;;;;;;;;;4418729;32;20523;-72
2022/09/02 18:19:01;;;;;;;8.07;2.95;;;;;;;;;;4419585;32;20093;-72
2022/09/02 18:21:32;;;;;;;4.25;2.55;;;;;;;;;;4439497;32;20045;-72
2022/09/02 18:24:06;;;;;;;6.00;2.70;;;;;;;;;;4450196;32;20022;-72
2022/09/02 18:26:37;;;;;;;6.62;2.65;;;;;;;;;;4449815;32;20033;-72
2022/09/02 18:29:11;;;;;;;8.35;3.20;;;;;;;;;;4449300;32;20061;-72
2022/09/02 18:32:02;;;;;;;4.97;2.80;;;;;;;;;;4450203;32;20092;-72
2022/09/02 18:34:46;;;;;;;4.07;2.50;;;;;;;;;;4450255;32;20064;-71
2022/09/02 18:37:25;;;;;;;6.97;2.67;;;;;;;;;;4449284;32;20313;-66
2022/09/02 18:40:10;;;;;;;9.98;2.90;;;;;;;;;;4444540;32;20033;-66
2022/09/02 18:42:50;;;;;;;8.80;2.70;;;;;;;;;;4436088;32;20030;-67
2022/09/02 18:45:32;;;;;;;6.70;2.83;;;;;;;;;;4451699;32;20025;-66
2022/09/02 18:48:01;;;;;;;6.87;2.75;;;;;;;;;;4453132;32;20033;-66
2022/09/02 18:50:28;;;;;;;6.70;2.92;;;;;;;;;;4452317;32;20124;-66
2022/09/02 18:52:57;;;;;;;4.80;2.90;;;;;;;;;;4452123;32;20067;-66
2022/09/02 18:55:26;;;;;;;7.37;3.03;;;;;;;;;;4452324;32;20073;-66
2022/09/02 18:57:55;;;;;;;3.50;2.10;;;;;;;;;;4451190;32;20442;-66
2022/09/02 19:00:21;;;;;;;4.40;2.65;;;;;;;;;;4430816;32;20025;-66
2022/09/02 19:03:01;;;;;;;5.12;2.62;;;;;;;;;;4437877;32;20060;-66
2022/09/02 19:05:28;;;;;;;8.02;2.95;;;;;;;;;;4436856;32;20038;-66
2022/09/02 19:10:43;;;;;;;4.40;2.83;;;;;;;;;;4436412;32;20077;-66
2022/09/02 19:13:08;;;;;;;6.43;3.28;;;;;;;;;;4436429;32;20033;-66
2022/09/02 19:15:36;;;;;;;6.73;3.30;;;;;;;;;;4436124;32;20125;-66
2022/09/02 19:18:01;;;;;;;7.35;3.10;;;;;;;;;;4436173;32;20163;-66
2022/09/02 19:20:26;;;;;;;5.63;2.70;;;;;;;;;;4436906;32;20026;-66
2022/09/02 19:22:53;;;;;;;4.85;2.53;;;;;;;;;;4436640;32;20185;-67
2022/09/02 19:25:23;;;;;;;8.07;3.05;;;;;;;;;;4436685;32;20455;-66
2022/09/02 19:27:49;;;;;;;8.18;3.78;;;;;;;;;;4436801;32;20060;-66
2022/09/02 19:30:23;;;;;;;12.07;3.30;;;;;;;;;;4436213;32;20084;-66
2022/09/02 19:32:52;;;;;;;9.00;3.65;;;;;;;;;;4446353;32;20125;-65
2022/09/02 19:35:20;;;;;;;8.07;5.37;;;;;;;;;;4451476;32;20063;-67
2022/09/02 19:37:46;;;;;;;12.82;6.00;;;;;;;;;;4451635;32;20409;-67
2022/09/02 19:40:13;;;;;;;7.00;4.62;;;;;;;;;;4451526;32;20037;-67
2022/09/02 19:42:39;;;;;;;7.18;4.78;;;;;;;;;;4451713;32;20113;-66
2022/09/02 19:45:04;;;;;;;7.18;3.90;;;;;;;;;;4451457;32;20032;-66
2022/09/02 19:47:33;;;;;;;7.70;3.53;;;;;;;;;;4451176;32;20108;-67
2022/09/02 19:49:59;;;;;;;4.47;3.20;;;;;;;;;;4451289;32;20116;-66
2022/09/02 19:52:24;;;;;;;4.37;2.87;;;;;;;;;;4451024;32;20025;-66
2022/09/02 19:54:49;;;;;;;5.95;2.67;;;;;;;;;;4435668;32;20450;-66
2022/09/02 19:57:15;;;;;;;6.95;2.40;;;;;;;;;;4436701;32;20435;-66
2022/09/02 19:59:40;;;;;;;3.30;2.35;;;;;;;;;;4436048;32;20334;-68
2022/09/02 20:02:05;;;;;;;5.60;2.78;;;;;;;;;;4435137;32;20045;-68
2022/09/02 20:04:30;;;;;;;5.80;2.37;;;;;;;;;;4436042;32;20068;-67
2022/09/02 20:06:57;;;;;;;3.58;2.00;;;;;;;;;;4434675;32;20444;-69
2022/09/02 20:09:24;;;;;;;6.55;2.20;;;;;;;;;;4448637;32;20049;-67
2022/09/02 20:11:49;;;;;;;6.15;2.70;;;;;;;;;;4451427;32;20037;-67
2022/09/02 20:14:14;;;;;;;7.03;2.40;;;;;;;;;;4451095;32;20077;-68
2022/09/02 20:16:39;;;;;;;5.62;2.55;;;;;;;;;;4450999;32;20308;-69
2022/09/02 20:19:07;;;;;;;6.45;2.65;;;;;;;;;;4446624;32;20358;-70
2022/09/02 20:21:41;;;;;;;8.98;3.05;;;;;;;;;;4440471;32;20117;-72
2022/09/02 20:24:08;;;;;;;7.10;2.42;;;;;;;;;;4435772;32;20448;-72
2022/09/02 20:26:36;;;;;;;4.57;2.53;;;;;;;;;;4435591;32;20067;-73
2022/09/02 20:29:01;;;;;;;5.07;2.50;;;;;;;;;;4435175;32;20045;-77
2022/09/02 20:31:37;;;;;;;5.62;2.20;;;;;;;;;;4436175;32;20114;-71
2022/09/02 20:34:05;;;;;;;3.10;2.20;;;;;;;;;;4437284;32;20048;-72
2022/09/02 20:36:52;;;;;;;4.00;2.17;;;;;;;;;;4450780;32;20063;-72
2022/09/02 20:39:42;;;;;;;4.65;2.40;;;;;;;;;;4446660;32;20064;-71
2022/09/02 20:42:20;;;;;;;6.87;2.35;;;;;;;;;;4438749;32;20105;-73
2022/09/02 20:44:53;;;;;;;3.80;2.58;;;;;;;;;;4435413;32;20529;-72
2022/09/02 20:47:28;;;;;;;3.45;2.58;;;;;;;;;;4439052;32;20055;-72
2022/09/02 20:50:05;;;;;;;6.82;2.83;;;;;;;;;;4437753;32;20026;-72
2022/09/02 20:52:33;;;;;;;6.50;2.30;;;;;;;;;;4435168;32;20410;-72
2022/09/02 20:55:13;;;;;;;7.90;2.60;;;;;;;;;;4448045;32;20095;-72
2022/09/02 20:58:14;;;;;;;4.55;2.90;;;;;;;;;;4436088;32;20442;-73
2022/09/02 21:00:36;;;;;;;5.70;2.30;;;;;;;;;;4434055;32;20045;-71
2022/09/02 21:03:04;;;;;;;5.97;2.33;;;;;;;;;;4432401;32;20036;-70
2022/09/02 21:05:44;;;;;;;3.42;2.12;;;;;;;;;;4432603;32;20034;-68
2022/09/02 21:08:21;;;;;;;4.30;2.17;;;;;;;;;;4433681;32;20569;-69
2022/09/02 21:10:50;;;;;;;6.20;2.20;;;;;;;;;;4435195;32;20034;-69
2022/09/02 21:13:32;;;;;;;7.25;2.47;;;;;;;;;;4434746;32;20056;-69
2022/09/02 21:15:57;;;;;;;3.67;1.87;;;;;;;;;;4434992;32;20047;-69
2022/09/02 21:18:31;;;;;;;5.05;2.10;;;;;;;;;;4434656;32;20030;-69
2022/09/02 21:21:16;;;;;;;6.68;2.08;;;;;;;;;;4434985;32;20030;-69
2022/09/02 21:23:45;;;;;;;7.20;2.20;;;;;;;;;;4434219;32;20029;-69
2022/09/02 21:26:17;;;;;;;4.97;1.77;;;;;;;;;;4434416;32;20073;-69
2022/09/02 21:28:51;;;;;;;4.62;2.03;;;;;;;;;;4434296;32;20453;-69
2022/09/02 21:31:19;;;;;;;6.85;2.25;;;;;;;;;;4434668;32;20021;-69
2022/09/02 21:33:44;;;;;;;3.03;1.73;;;;;;;;;;4445531;32;20052;-69
2022/09/02 21:36:17;;;;;;;2.75;2.10;;;;;;;;;;4449711;32;20091;-69
2022/09/02 21:38:45;;;;;;;5.57;2.00;;;;;;;;;;4449718;32;20059;-69
2022/09/02 21:41:27;;;;;;;6.22;2.17;;;;;;;;;;4450249;32;20061;-69
2022/09/02 21:44:11;;;;;;;4.68;2.15;;;;;;;;;;4450205;32;20041;-69
2022/09/02 21:46:56;;;;;;;3.87;1.95;;;;;;;;;;4449285;32;20082;-69
2022/09/02 21:49:30;;;;;;;3.65;2.03;;;;;;;;;;4450127;32;20437;-68
2022/09/02 21:52:06;;;;;;;6.80;1.90;;;;;;;;;;4449736;32;20117;-69
2022/09/02 21:54:40;;;;;;;2.50;1.62;;;;;;;;;;4448971;32;20074;-68
2022/09/02 21:57:17;;;;;;;5.70;2.00;;;;;;;;;;4450384;32;20081;-69
2022/09/02 21:59:50;;;;;;;4.45;2.20;;;;;;;;;;4449906;32;20075;-69
2022/09/02 22:02:37;;;;;;;4.25;2.08;;;;;;;;;;4448411;32;20068;-69
2022/09/02 22:05:02;;;;;;;;;;;;;;;;;;4449548;32;20063;-69
2022/09/02 22:07:34;;;;;;;2.63;1.70;;;;;;;;;;4450004;32;19960;-70
2022/09/02 22:10:09;;;;;;;2.90;1.90;;;;;;;;;;4449831;32;20456;-69
2022/09/02 22:12:38;;;;;;;5.25;1.87;;;;;;;;;;4450574;32;20025;-69
2022/09/02 22:15:13;;;;;;;3.17;1.75;;;;;;;;;;4449873;32;20372;-70
2022/09/02 22:17:50;;;;;;;5.37;2.37;;;;;;;;;;4441410;32;20642;-69
2022/09/02 22:20:21;;;;;;;3.95;2.08;;;;;;;;;;4437474;32;20056;-69
2022/09/02 22:22:52;;;;;;;9.45;2.20;;;;;;;;;;4436638;32;20094;-70
2022/09/02 22:25:17;;;;;;;2.85;1.90;;;;;;;;;;4437380;32;20060;-70
2022/09/02 22:27:51;;;;;;;4.90;2.10;;;;;;;;;;4436639;32;20029;-69
2022/09/02 22:30:16;;;;;;;4.20;2.37;;;;;;;;;;4436770;32;20046;-69
2022/09/02 22:33:05;;;;;;;7.68;2.22;;;;;;;;;;4436615;32;20472;-69
2022/09/02 22:35:37;;;;;;;6.35;2.10;;;;;;;;;;4436658;32;20065;-69
2022/09/02 22:38:26;;;;;;;5.28;2.00;;;;;;;;;;4436493;32;20071;-69
2022/09/02 22:41:04;;;;;;;6.55;1.87;;;;;;;;;;4436278;32;20089;-69
2022/09/02 22:43:32;;;;;;;2.83;1.90;;;;;;;;;;4445837;32;20033;-69
2022/09/02 22:54:23;;;;;;;7.45;2.17;;;;;;;;;;4451812;32;20142;-67
2022/09/02 22:56:59;;;;;;;5.78;2.08;;;;;;;;;;4451946;32;20421;-69
2022/09/02 22:59:31;;;;;;;4.97;1.87;;;;;;;;;;4452839;32;20033;-69
2022/09/02 23:02:08;;;;;;;3.67;2.10;;;;;;;;;;4450403;32;20048;-69
2022/09/02 23:04:34;;;;;;;5.45;2.20;;;;;;;;;;4452060;32;20447;-69
2022/09/02 23:07:00;;;;;;;6.35;2.20;;;;;;;;;;4449095;32;20061;-69
2022/09/02 23:09:25;;;;;;;4.20;2.10;;;;;;;;;;4436391;32;20056;-69
2022/09/02 23:12:18;;;;;;;5.18;1.98;;;;;;;;;;4436634;32;20377;-69
2022/09/02 23:15:05;;;;;;;3.50;2.12;;;;;;;;;;4436584;32;20082;-69
2022/09/02 23:17:43;;;;;;;3.47;1.87;;;;;;;;;;4436790;32;20033;-69
2022/09/02 23:20:31;;;;;;;4.40;2.00;;;;;;;;;;4437413;32;20021;-69
2022/09/02 23:23:08;;;;;;;5.47;2.17;;;;;;;;;;4427156;32;20059;-69
2022/09/02 23:25:54;;;;;;;5.12;2.00;;;;;;;;;;4436305;32;20056;-68
2022/09/02 23:28:31;;;;;;;3.42;2.00;;;;;;;;;;4436352;32;20018;-69